Time;durP1;ratioP1;P1;durP2;ratioP2;P2;SDS_P1;SDS_P2;PMS_P1;PMS_P2;Temp;Humidity;BMP_temperature;BMP_pressure;BME280_temperature;BME280_humidity;BME280_pressure;Samples;Min_cycle;Max_cycle;Signal;HPM_P1;HPM_P2
2023/02/21 02:14:29;;;;;;;43.97;16.65;;;;;;;7.63;94.27;102252.88;6097899;19;20078;-74
2023/02/21 02:16:47;;;;;;;41.28;14.95;;;;;;;7.61;94.13;102250.28;6099796;19;20095;-74
2023/02/21 02:19:15;;;;;;;46.50;17.35;;;;;;;7.61;94.33;102250.28;6073628;19;20015;-74
2023/02/21 02:21:51;;;;;;;45.45;18.98;;;;;;;7.66;94.15;102242.38;6099118;19;20034;-75
2023/02/21 02:24:45;;;;;;;48.83;17.48;;;;;;;7.64;94.11;102231.94;6079873;19;20007;-75
2023/02/21 02:27:18;;;;;;;42.75;16.35;;;;;;;7.65;94.43;102248.50;6086317;19;20425;-74
2023/02/21 02:30:01;;;;;;;41.07;17.70;;;;;;;7.62;94.32;102235.44;6076294;19;20049;-74
2023/02/21 02:32:31;;;;;;;42.65;17.75;;;;;;;7.66;94.27;102237.16;6076095;19;20051;-74
2023/02/21 02:34:55;;;;;;;43.22;18.95;;;;;;;7.68;94.11;102233.63;6097530;19;20458;-72
2023/02/21 02:37:09;;;;;;;48.17;18.83;;;;;;;7.68;94.25;102232.78;6067246;19;20056;-74
2023/02/21 02:39:24;;;;;;;47.75;18.25;;;;;;;7.65;94.08;102231.06;6078512;19;20035;-74
2023/02/21 02:41:47;;;;;;;55.38;19.33;;;;;;;7.66;94.02;102232.81;6097374;19;20352;-76
2023/02/21 02:43:56;;;;;;;45.60;17.45;;;;;;;7.65;94.09;102230.19;6074925;19;20488;-74
2023/02/21 02:46:08;;;;;;;48.63;19.73;;;;;;;7.64;94.22;102233.69;6099525;19;20576;-74
2023/02/21 02:48:22;;;;;;;43.87;18.27;;;;;;;7.63;94.46;102232.81;6077255;19;20638;-74
2023/02/21 02:50:31;;;;;;;51.75;20.80;;;;;;;7.64;94.55;102231.06;6097595;19;20271;-74
2023/02/21 02:52:37;;;;;;;46.55;20.27;;;;;;;7.63;94.39;102232.81;6094179;19;20014;-75
2023/02/21 02:54:45;;;;;;;54.70;20.63;;;;;;;7.67;94.01;102229.31;6098955;19;20342;-74
2023/02/21 02:56:50;;;;;;;54.65;22.13;;;;;;;7.62;93.99;102227.59;6091135;19;20498;-75
2023/02/21 02:59:00;;;;;;;45.67;20.83;;;;;;;7.60;94.60;102232.81;6097801;19;20032;-75
2023/02/21 03:01:21;;;;;;;52.97;21.13;;;;;;;7.63;94.42;102230.19;6101871;19;20088;-75
2023/02/21 03:03:46;;;;;;;51.05;21.85;;;;;;;7.61;94.16;102231.97;6105020;19;20021;-74
2023/02/21 03:06:10;;;;;;;55.63;22.23;;;;;;;7.59;94.52;102232.84;6101688;19;20219;-74
2023/02/21 03:08:27;;;;;;;47.05;19.73;;;;;;;7.64;94.34;102233.69;6102423;19;20010;-74
2023/02/21 03:10:42;;;;;;;58.28;24.73;;;;;;;7.61;94.67;102238.91;6103128;19;20750;-74
2023/02/21 03:12:53;;;;;;;50.58;19.20;;;;;;;7.63;94.26;102238.03;6082775;19;20018;-74
2023/02/21 03:15:05;;;;;;;51.33;20.75;;;;;;;7.66;94.13;102229.28;6099776;19;20014;-75
2023/02/21 03:17:17;;;;;;;46.83;20.47;;;;;;;7.66;94.14;102234.53;6100786;19;20033;-75
2023/02/21 03:19:26;;;;;;;50.80;19.70;;;;;;;7.63;94.40;102226.69;6104950;19;20464;-75
2023/02/21 03:21:39;;;;;;;49.50;21.17;;;;;;;7.67;94.28;102223.19;6101775;19;20034;-75
2023/02/21 03:23:56;;;;;;;56.10;22.30;;;;;;;7.69;94.03;102221.44;6105053;19;20033;-75
2023/02/21 03:26:06;;;;;;;50.78;22.60;;;;;;;7.64;94.39;102220.63;6100819;19;20021;-75
2023/02/21 03:28:11;;;;;;;56.67;22.23;;;;;;;7.59;94.23;102215.41;6082195;19;20078;-75
2023/02/21 03:30:17;;;;;;;61.15;22.83;;;;;;;7.64;94.34;102218.00;6101776;19;20631;-75
2023/02/21 03:34:29;;;;;;;53.38;21.77;;;;;;;7.61;94.32;102210.13;6097660;19;20627;-77
2023/02/21 03:36:40;;;;;;;56.20;22.27;;;;;;;7.62;94.52;102214.50;6101072;19;20018;-76
2023/02/21 03:38:46;;;;;;;49.95;20.70;;;;;;;7.62;94.55;102217.13;6104338;19;20077;-74
2023/02/21 03:40:51;;;;;;;56.55;23.38;;;;;;;7.59;94.81;102217.16;6098151;19;20042;-75
2023/02/21 03:42:59;;;;;;;50.38;20.88;;;;;;;7.61;94.54;102220.59;6104124;19;20007;-74
2023/02/21 03:45:04;;;;;;;51.53;22.23;;;;;;;7.63;94.53;102211.88;6105290;19;20107;-75
2023/02/21 03:47:09;;;;;;;59.88;22.55;;;;;;;7.61;94.42;102224.13;6102538;19;20027;-74
2023/02/21 03:49:14;;;;;;;59.03;22.50;;;;;;;7.57;94.66;102221.53;6101393;19;20478;-74
2023/02/21 03:51:19;;;;;;;55.42;22.10;;;;;;;7.56;94.78;102214.56;6083551;19;20082;-74
2023/02/21 03:53:27;;;;;;;53.72;22.17;;;;;;;7.60;94.84;102221.50;6096799;19;20031;-75
2023/02/21 03:55:33;;;;;;;51.55;20.65;;;;;;;7.58;94.93;102218.91;6102412;19;20101;-75
2023/02/21 03:57:38;;;;;;;57.15;22.13;;;;;;;7.58;94.55;102229.38;6081131;19;20018;-74
2023/02/21 03:59:44;;;;;;;56.55;21.83;;;;;;;7.52;94.58;102223.28;6097245;19;20030;-74
2023/02/21 04:01:52;;;;;;;50.22;20.38;;;;;;;7.56;94.72;102219.78;6095855;19;20570;-75
2023/02/21 04:03:57;;;;;;;57.80;23.23;;;;;;;7.52;95.18;102218.91;6097435;19;20007;-74
2023/02/21 04:06:05;;;;;;;54.95;22.67;;;;;;;7.52;94.84;102218.06;6080590;19;20085;-75
2023/02/21 04:08:10;;;;;;;57.25;21.77;;;;;;;7.54;94.92;102214.56;6098944;19;20046;-75
2023/02/21 04:10:18;;;;;;;57.47;22.60;;;;;;;7.55;94.98;102218.03;6101428;19;20010;-76
2023/02/21 04:12:24;;;;;;;51.03;21.80;;;;;;;7.56;94.68;102215.41;6075722;19;20429;-74
2023/02/21 04:14:29;;;;;;;57.72;22.33;;;;;;;7.56;94.87;102214.56;6098983;19;20033;-74
2023/02/21 04:16:34;;;;;;;53.28;21.15;;;;;;;7.55;94.72;102211.06;6103954;19;20382;-75
2023/02/21 04:18:39;;;;;;;63.47;24.25;;;;;;;7.56;94.75;102206.72;6099289;19;20654;-76
2023/02/21 04:20:48;;;;;;;58.17;23.50;;;;;;;7.59;94.80;102204.06;6100882;19;20550;-75
2023/02/21 04:22:53;;;;;;;53.33;22.02;;;;;;;7.59;94.93;102214.53;6102286;19;21522;-75
2023/02/21 04:25:08;;;;;;;52.88;22.25;;;;;;;7.53;94.94;102210.22;6101337;19;20022;-75
2023/02/21 04:27:16;;;;;;;59.00;22.10;;;;;;;7.58;95.03;102213.69;6102446;19;19999;-75
2023/02/21 04:29:21;;;;;;;52.50;21.55;;;;;;;7.57;94.89;102219.75;6104938;19;20458;-75
2023/02/21 04:31:26;;;;;;;58.65;23.05;;;;;;;7.53;94.92;102214.56;6102262;19;20015;-75
2023/02/21 04:33:32;;;;;;;60.08;24.42;;;;;;;7.51;94.97;102217.19;6096882;19;20078;-74
2023/02/21 04:35:37;;;;;;;56.97;21.98;;;;;;;7.48;95.31;102207.63;6101929;19;20011;-76
2023/02/21 04:37:43;;;;;;;60.92;23.50;;;;;;;7.50;95.09;102210.22;6101056;19;20489;-75
2023/02/21 04:39:50;;;;;;;57.13;21.92;;;;;;;7.46;95.36;102209.38;6100849;19;20377;-75
2023/02/21 04:41:55;;;;;;;56.60;24.75;;;;;;;7.50;95.20;102209.34;6098661;19;20123;-77
2023/02/21 04:44:03;;;;;;;51.42;22.05;;;;;;;7.52;95.03;102220.69;6079448;19;20094;-76
2023/02/21 04:46:14;;;;;;;55.40;21.52;;;;;;;7.52;95.16;102210.22;6077966;19;20013;-74
2023/02/21 04:48:19;;;;;;;55.80;22.45;;;;;;;7.48;95.15;102202.38;6077469;19;20470;-74
2023/02/21 04:50:28;;;;;;;55.67;22.27;;;;;;;7.51;94.98;102198.88;6080394;19;20043;-74
2023/02/21 04:52:33;;;;;;;53.33;22.45;;;;;;;7.53;94.78;102194.53;6101922;19;20070;-75
2023/02/21 04:54:39;;;;;;;52.67;21.60;;;;;;;7.50;95.01;102206.72;6101473;19;20042;-74
2023/02/21 04:56:46;;;;;;;52.00;20.40;;;;;;;7.48;95.35;102205.00;6096802;19;20429;-75
2023/02/21 04:58:52;;;;;;;53.20;23.27;;;;;;;7.46;95.25;102191.06;6097984;19;20426;-75
2023/02/21 05:01:02;;;;;;;58.25;23.67;;;;;;;7.52;94.98;102195.38;6102241;19;20025;-74
2023/02/21 05:03:07;;;;;;;53.90;23.30;;;;;;;7.51;95.03;102203.25;6100978;19;20486;-74
2023/02/21 05:05:12;;;;;;;49.97;19.42;;;;;;;7.51;95.22;102203.25;6082073;19;20110;-76
2023/02/21 05:07:18;;;;;;;55.22;23.38;;;;;;;7.51;95.29;102200.63;6078183;19;20010;-74
2023/02/21 05:09:23;;;;;;;56.75;22.25;;;;;;;7.48;95.18;102199.78;6102187;19;20010;-75
2023/02/21 05:11:29;;;;;;;55.28;24.70;;;;;;;7.49;95.26;102203.25;6080372;19;20031;-75
2023/02/21 05:13:34;;;;;;;53.92;21.00;;;;;;;7.51;95.18;102190.19;6081841;19;20114;-75
2023/02/21 05:15:39;;;;;;;53.38;23.08;;;;;;;7.53;94.93;102196.25;6096262;19;20014;-74
2023/02/21 05:17:49;;;;;;;54.72;22.52;;;;;;;7.60;94.72;102201.44;6101153;19;20519;-74
2023/02/21 05:19:54;;;;;;;53.50;22.80;;;;;;;7.55;95.26;102202.34;6100906;19;20018;-75
2023/02/21 05:22:01;;;;;;;54.72;22.60;;;;;;;7.58;94.80;102200.59;6077858;19;20039;-76
2023/02/21 05:24:07;;;;;;;51.05;22.23;;;;;;;7.59;94.57;102193.59;6097727;19;20007;-75
2023/02/21 05:26:14;;;;;;;56.67;22.92;;;;;;;7.56;94.72;102199.72;6076212;19;20007;-74
2023/02/21 05:28:19;;;;;;;56.53;21.92;;;;;;;7.58;94.49;102202.31;6077589;19;20003;-75
2023/02/21 05:30:27;;;;;;;50.30;21.02;;;;;;;7.60;94.71;102201.44;6100999;19;20039;-75
2023/02/21 05:32:32;;;;;;;54.85;22.77;;;;;;;7.60;94.55;102201.44;6098996;19;20014;-76
2023/02/21 05:34:43;;;;;;;58.00;23.75;;;;;;;7.59;94.56;102199.69;6101840;19;20022;-74
2023/02/21 05:36:50;;;;;;;50.17;21.55;;;;;;;7.57;94.61;102196.22;6093479;19;20570;-74
2023/02/21 05:38:59;;;;;;;57.63;23.25;;;;;;;7.59;94.99;102188.38;6101332;19;20024;-74
2023/02/21 05:41:04;;;;;;;55.97;21.95;;;;;;;7.60;94.57;102195.34;6101930;19;20014;-75
2023/02/21 05:43:09;;;;;;;54.97;23.08;;;;;;;7.60;94.36;102192.72;6100516;19;20034;-76
2023/02/21 05:45:14;;;;;;;54.22;22.23;;;;;;;7.56;94.77;102189.25;6100178;19;20021;-76
2023/02/21 05:47:19;;;;;;;58.33;23.98;;;;;;;7.61;94.72;102183.97;6100096;19;20027;-76
2023/02/21 05:49:26;;;;;;;56.88;23.75;;;;;;;7.61;94.44;102191.81;6097311;19;20039;-76
2023/02/21 05:51:40;;;;;;;52.05;22.88;;;;;;;7.59;94.81;102189.25;6096816;19;20017;-75
2023/02/21 05:53:45;;;;;;;55.38;21.67;;;;;;;7.61;94.60;102184.88;6096202;19;20078;-76
2023/02/21 05:55:50;;;;;;;50.53;20.90;;;;;;;7.58;94.77;102191.84;6101696;19;20003;-75
2023/02/21 05:57:56;;;;;;;55.17;21.83;;;;;;;7.58;94.71;102191.84;6095980;19;20465;-75
2023/02/21 06:00:02;;;;;;;54.92;22.30;;;;;;;7.57;94.60;102191.00;6099800;19;20533;-76
2023/02/21 06:02:07;;;;;;;58.80;25.00;;;;;;;7.57;94.75;102191.00;6099604;19;20007;-75
2023/02/21 06:04:12;;;;;;;56.17;24.10;;;;;;;7.56;94.71;102196.25;6095604;19;20019;-74
2023/02/21 06:06:20;;;;;;;57.30;24.70;;;;;;;7.55;94.52;102192.75;6100492;19;20010;-73
2023/02/21 06:08:27;;;;;;;54.42;22.30;;;;;;;7.56;94.87;102197.13;6099173;19;20027;-74
2023/02/21 06:10:33;;;;;;;55.42;23.80;;;;;;;7.58;94.65;102191.84;6099626;19;20082;-74
2023/02/21 06:12:41;;;;;;;54.80;22.40;;;;;;;7.54;94.76;102184.91;6095508;19;20010;-75
2023/02/21 06:14:46;;;;;;;57.33;21.70;;;;;;;7.54;94.83;102184.91;6099215;19;20018;-74
2023/02/21 06:16:51;;;;;;;56.60;22.27;;;;;;;7.55;94.80;102189.25;6095748;19;20333;-75
2023/02/21 06:18:58;;;;;;;56.72;22.45;;;;;;;7.57;94.90;102198.84;6100229;19;20018;-74
2023/02/21 06:21:03;;;;;;;55.85;25.42;;;;;;;7.57;94.73;102195.34;6097411;19;20014;-75
2023/02/21 06:23:09;;;;;;;54.70;21.75;;;;;;;7.58;94.58;102207.56;6079921;19;20035;-75
2023/02/21 06:25:16;;;;;;;55.67;23.48;;;;;;;7.52;94.86;102211.06;6100703;19;20015;-74
2023/02/21 06:27:21;;;;;;;56.13;22.75;;;;;;;7.53;94.94;102210.22;6098382;19;20012;-75
2023/02/21 06:29:26;;;;;;;52.47;21.50;;;;;;;7.52;94.90;102198.00;6098616;19;20029;-74
2023/02/21 06:31:32;;;;;;;56.72;23.80;;;;;;;7.56;94.92;102198.88;6097446;19;20106;-72
2023/02/21 06:33:38;;;;;;;50.20;22.88;;;;;;;7.57;94.74;102197.97;6095460;19;20022;-76
2023/02/21 06:35:43;;;;;;;62.65;23.77;;;;;;;7.59;94.93;102198.84;6102342;19;20066;-74
2023/02/21 06:37:50;;;;;;;58.25;23.13;;;;;;;7.64;94.53;102197.94;6084542;19;19998;-74
2023/02/21 06:39:55;;;;;;;64.68;23.83;;;;;;;7.63;94.26;102200.53;6080207;19;20505;-75
2023/02/21 06:42:02;;;;;;;54.72;21.90;;;;;;;7.61;94.61;102203.19;6105904;19;20078;-74
2023/02/21 06:44:07;;;;;;;58.83;24.35;;;;;;;7.61;94.61;102199.69;6100719;19;20022;-74
2023/02/21 06:46:19;;;;;;;58.03;23.35;;;;;;;7.59;94.42;102204.94;6105414;19;20034;-74
2023/02/21 06:48:25;;;;;;;56.00;22.95;;;;;;;7.62;94.56;102211.91;6103977;19;20011;-74
2023/02/21 06:50:30;;;;;;;54.17;22.35;;;;;;;7.64;94.66;102212.75;6106647;19;20019;-76
2023/02/21 06:52:38;;;;;;;56.40;22.67;;;;;;;7.60;94.65;102211.03;6103533;19;20574;-75
2023/02/21 06:54:43;;;;;;;62.05;22.88;;;;;;;7.57;94.72;102211.06;6083716;19;20534;-74
2023/02/21 06:56:51;;;;;;;58.72;22.90;;;;;;;7.62;94.71;102209.28;6104126;19;20010;-74
2023/02/21 06:58:59;;;;;;;58.90;24.13;;;;;;;7.61;94.71;102204.91;6078324;19;20020;-74
2023/02/21 07:01:04;;;;;;;59.00;23.33;;;;;;;7.60;94.63;102211.03;6079083;19;20348;-76
2023/02/21 07:03:12;;;;;;;51.05;21.00;;;;;;;7.64;94.86;102210.16;6102275;19;20011;-75
2023/02/21 07:05:20;;;;;;;56.63;24.77;;;;;;;7.62;94.67;102204.91;6085852;19;20245;-75
2023/02/21 07:07:25;;;;;;;56.03;23.40;;;;;;;7.60;94.91;102205.81;6083360;19;20100;-75
2023/02/21 07:09:30;;;;;;;58.83;23.80;;;;;;;7.62;94.66;102202.28;6103001;19;20112;-74
2023/02/21 07:11:37;;;;;;;58.70;22.60;;;;;;;7.65;94.24;102204.88;6107945;19;20014;-74
2023/02/21 07:13:42;;;;;;;53.80;22.00;;;;;;;7.64;94.25;102207.53;6103381;19;20010;-75
2023/02/21 07:15:52;;;;;;;53.88;21.65;;;;;;;7.68;94.14;102209.22;6106652;19;20017;-76
2023/02/21 07:17:58;;;;;;;55.38;23.08;;;;;;;7.69;94.36;102213.59;6105955;19;20007;-75
2023/02/21 07:20:04;;;;;;;53.67;21.77;;;;;;;7.68;94.31;102215.31;6082948;19;20011;-73
2023/02/21 07:22:09;;;;;;;54.72;22.80;;;;;;;7.65;94.57;102215.34;6075505;19;20014;-75
2023/02/21 07:24:15;;;;;;;60.70;23.83;;;;;;;7.68;94.21;102214.47;6102297;19;20033;-74
2023/02/21 07:26:20;;;;;;;52.70;21.63;;;;;;;7.69;94.16;102219.69;6102756;19;20470;-74
2023/02/21 07:28:25;;;;;;;49.55;23.83;;;;;;;7.76;94.35;102217.91;6104832;19;20488;-75
2023/02/21 07:30:30;;;;;;;54.28;22.40;;;;;;;7.74;94.23;102213.56;6098863;19;20031;-75
2023/02/21 07:32:38;;;;;;;57.05;22.02;;;;;;;7.73;94.14;102215.31;6103032;19;20078;-75
2023/02/21 07:34:47;;;;;;;51.63;22.55;;;;;;;7.72;94.26;102216.19;6078406;19;20017;-75
2023/02/21 07:36:52;;;;;;;50.92;21.98;;;;;;;7.73;94.11;102223.16;6079095;19;20361;-74
2023/02/21 07:38:57;;;;;;;53.95;22.83;;;;;;;7.74;94.26;102219.69;6101581;19;20025;-76
2023/02/21 07:41:04;;;;;;;56.58;23.55;;;;;;;7.77;94.16;102210.94;6103166;19;20030;-77
2023/02/21 07:43:09;;;;;;;58.08;23.10;;;;;;;7.79;93.98;102211.78;6104242;19;21424;-74
2023/02/21 07:45:15;;;;;;;53.35;21.00;;;;;;;7.84;94.11;102210.84;6087625;19;20054;-75
2023/02/21 07:47:20;;;;;;;52.70;21.60;;;;;;;7.79;93.96;102211.78;6106960;19;20043;-74
2023/02/21 07:49:29;;;;;;;53.55;22.38;;;;;;;7.80;94.01;102219.63;6104414;19;20435;-74
2023/02/21 07:51:34;;;;;;;51.05;21.70;;;;;;;7.78;94.07;102216.16;6104416;19;20011;-74
2023/02/21 07:53:42;;;;;;;59.35;24.98;;;;;;;7.83;94.05;102219.59;6098743;19;20022;-74
2023/02/21 07:55:50;;;;;;;57.47;22.55;;;;;;;7.84;93.95;102215.22;6098968;19;20015;-74
2023/02/21 07:57:55;;;;;;;49.40;20.33;;;;;;;7.86;94.06;102213.47;6083442;19;20059;-75
2023/02/21 08:00:05;;;;;;;53.67;21.33;;;;;;;7.87;93.75;102213.47;6101559;19;20014;-75
2023/02/21 08:02:12;;;;;;;52.38;21.35;;;;;;;7.88;94.17;102222.19;6103513;19;20086;-74
2023/02/21 08:04:20;;;;;;;51.78;19.33;;;;;;;7.88;93.66;102219.56;6102327;19;20040;-75
2023/02/21 08:06:28;;;;;;;50.42;20.42;;;;;;;7.89;93.97;102219.53;6101247;19;20108;-75
2023/02/21 08:08:34;;;;;;;52.10;20.50;;;;;;;7.89;93.90;102213.44;6086091;19;20002;-75
2023/02/21 08:10:41;;;;;;;47.10;19.58;;;;;;;7.88;93.79;102215.22;6103428;19;20014;-75
2023/02/21 08:12:47;;;;;;;56.28;22.35;;;;;;;7.93;93.87;102224.78;6103308;19;20021;-74
2023/02/21 08:14:55;;;;;;;60.83;22.75;;;;;;;7.94;93.51;102221.28;6077439;19;20532;-74
2023/02/21 08:17:02;;;;;;;47.08;21.23;;;;;;;7.96;93.76;102224.75;6101070;19;20018;-75
2023/02/21 08:19:08;;;;;;;53.22;23.10;;;;;;;7.95;93.17;102225.63;6101557;19;20031;-74
2023/02/21 08:21:13;;;;;;;49.53;20.95;;;;;;;7.99;93.74;102220.34;6099804;19;20010;-74
2023/02/21 08:23:23;;;;;;;42.85;21.35;;;;;;;8.03;93.61;102218.56;6100475;19;20497;-74
2023/02/21 08:25:28;;;;;;;53.22;21.83;;;;;;;8.04;93.27;102217.72;6080483;19;20086;-73
2023/02/21 08:27:32;;;;;;;55.00;22.00;;;;;;;8.06;93.32;102223.81;6100738;19;20007;-74
2023/02/21 08:29:39;;;;;;;49.85;19.10;;;;;;;8.00;93.01;102229.94;6102225;19;20023;-73
2023/02/21 08:31:44;;;;;;;49.40;21.45;;;;;;;8.01;93.19;102221.22;6098361;19;20006;-73
2023/02/21 08:33:52;;;;;;;50.67;20.85;;;;;;;8.06;93.05;102221.19;6100694;19;20014;-74
2023/02/21 08:35:57;;;;;;;51.13;20.08;;;;;;;8.05;93.00;102220.31;6098185;19;20070;-73
2023/02/21 08:38:04;;;;;;;56.42;21.75;;;;;;;8.03;93.08;102213.34;6080634;19;20276;-74
2023/02/21 08:40:12;;;;;;;47.83;18.77;;;;;;;8.05;93.11;102217.69;6080500;19;20014;-74
2023/02/21 08:42:18;;;;;;;47.28;21.48;;;;;;;8.08;93.17;102219.41;6101852;19;20014;-75
2023/02/21 08:44:23;;;;;;;54.88;22.15;;;;;;;8.08;92.95;102225.53;6101693;19;20098;-73
2023/02/21 08:46:29;;;;;;;48.55;20.98;;;;;;;8.09;93.36;102227.25;6101399;19;20040;-74
2023/02/21 08:48:34;;;;;;;52.60;22.48;;;;;;;8.03;92.91;102226.44;6079204;19;20965;-74
2023/02/21 08:50:38;;;;;;;48.53;21.42;;;;;;;8.07;93.27;102228.16;6095775;19;20014;-73
2023/02/21 08:52:46;;;;;;;50.08;19.42;;;;;;;8.10;93.08;102225.50;6077470;19;20010;-74
2023/02/21 08:54:51;;;;;;;61.08;22.05;;;;;;;8.07;92.91;102207.22;6093934;19;20078;-75
2023/02/21 08:56:59;;;;;;;55.58;22.38;;;;;;;8.16;93.07;102222.81;6100852;19;20031;-74
2023/02/21 08:59:05;;;;;;;49.08;20.67;;;;;;;8.21;92.77;102226.28;6098810;19;20085;-74
2023/02/21 09:01:12;;;;;;;47.25;20.23;;;;;;;8.14;93.04;102222.00;6098192;19;20336;-75
2023/02/21 09:03:18;;;;;;;54.90;21.77;;;;;;;8.12;92.90;102226.38;6102268;19;20474;-76
2023/02/21 09:05:26;;;;;;;58.60;22.40;;;;;;;8.08;93.08;102215.06;6100242;19;20018;-76
2023/02/21 09:07:32;;;;;;;53.17;19.52;;;;;;;8.11;92.96;102216.78;6080260;19;20023;-75
2023/02/21 09:09:41;;;;;;;62.92;23.02;;;;;;;8.12;92.92;102213.28;6080927;19;20611;-74
2023/02/21 09:11:48;;;;;;;57.90;22.88;;;;;;;8.06;92.97;102213.34;6076994;19;20045;-73
2023/02/21 09:13:56;;;;;;;49.85;22.08;;;;;;;8.16;93.19;102216.72;6099118;19;20015;-74
2023/02/21 09:16:03;;;;;;;56.50;22.38;;;;;;;8.16;92.79;102219.34;6077190;19;20369;-74
2023/02/21 09:18:08;;;;;;;50.85;21.35;;;;;;;8.17;92.94;102213.25;6076898;19;20018;-73
2023/02/21 09:20:17;;;;;;;53.95;19.52;;;;;;;8.19;92.66;102211.47;6091311;19;20011;-74
2023/02/21 09:22:23;;;;;;;46.05;20.63;;;;;;;8.20;92.81;102208.84;6062186;19;20301;-74
2023/02/21 09:24:29;;;;;;;51.20;20.08;;;;;;;8.26;92.67;102208.78;6088080;19;20027;-74
2023/02/21 09:26:34;;;;;;;48.75;19.77;;;;;;;8.28;92.54;102203.53;6081545;19;20700;-74
2023/02/21 09:28:42;;;;;;;48.83;20.15;;;;;;;8.23;92.46;102203.56;6082357;19;20010;-74
2023/02/21 09:30:53;;;;;;;59.33;20.38;;;;;;;8.25;92.79;102206.19;6079024;19;20016;-73
2023/02/21 09:32:59;;;;;;;57.55;21.67;;;;;;;8.28;92.75;102204.41;6083189;19;19999;-75
2023/02/21 09:35:04;;;;;;;54.35;21.75;;;;;;;8.29;92.46;102198.31;6079544;19;20011;-73
2023/02/21 09:37:10;;;;;;;57.47;20.52;;;;;;;8.27;92.66;102197.44;6085399;19;20030;-73
2023/02/21 09:39:15;;;;;;;58.17;21.42;;;;;;;8.27;92.68;102196.59;6082931;19;20011;-73
2023/02/21 09:41:21;;;;;;;57.45;22.15;;;;;;;8.32;92.64;102202.59;6060390;19;20019;-74
2023/02/21 09:43:33;;;;;;;50.83;20.40;;;;;;;8.32;92.48;102202.59;6059477;19;20006;-73
2023/02/21 09:45:41;;;;;;;53.10;20.52;;;;;;;8.28;92.74;102195.69;6085820;19;20078;-73
2023/02/21 09:47:53;;;;;;;56.95;22.17;;;;;;;8.27;92.80;102197.44;6084204;19;20075;-75
2023/02/21 09:50:06;;;;;;;46.05;19.70;;;;;;;8.26;92.97;102197.44;6088896;19;20058;-74
2023/02/21 09:52:26;;;;;;;53.10;22.05;;;;;;;8.22;93.11;102196.63;6077851;19;20491;-73
2023/02/21 09:54:37;;;;;;;57.35;21.65;;;;;;;8.29;92.83;102195.69;6085318;19;20494;-75
2023/02/21 09:56:43;;;;;;;52.10;20.17;;;;;;;8.32;92.96;102195.66;6084605;19;20409;-75
2023/02/21 09:58:51;;;;;;;60.47;22.30;;;;;;;8.24;92.83;102200.09;6081949;19;20002;-75
2023/02/21 10:01:00;;;;;;;62.63;22.75;;;;;;;8.28;93.06;102196.53;6078914;19;20014;-74
2023/02/21 10:03:20;;;;;;;53.88;21.35;;;;;;;8.27;92.87;102200.06;6087170;19;20014;-73
2023/02/21 10:05:40;;;;;;;63.28;22.27;;;;;;;8.34;92.53;102196.47;6079902;19;20398;-74
2023/02/21 10:07:59;;;;;;;58.38;21.30;;;;;;;8.34;92.70;102193.84;6080630;19;20027;-74
2023/02/21 10:10:12;;;;;;;53.90;21.45;;;;;;;8.33;92.24;102194.75;6075076;19;20544;-73
2023/02/21 10:12:26;;;;;;;52.03;19.87;;;;;;;8.32;92.61;102184.28;6086863;19;20014;-74
2023/02/21 10:14:43;;;;;;;50.80;19.73;;;;;;;8.33;92.43;102181.66;6082254;19;20251;-74
2023/02/21 10:16:56;;;;;;;56.17;19.17;;;;;;;8.36;92.21;102186.88;6082716;19;20017;-74
2023/02/21 10:19:20;;;;;;;51.50;19.40;;;;;;;8.30;92.70;102192.16;6081036;19;20031;-74
2023/02/21 10:21:31;;;;;;;57.97;22.10;;;;;;;8.34;92.72;102191.25;6082067;19;20534;-74
2023/02/21 10:23:42;;;;;;;49.45;20.90;;;;;;;8.24;92.70;102192.25;6083216;19;20593;-74
2023/02/21 10:25:53;;;;;;;52.70;18.27;;;;;;;8.27;92.77;102188.72;6084164;19;20017;-74
2023/02/21 10:28:00;;;;;;;51.45;19.15;;;;;;;8.31;93.19;102193.03;6088844;19;20954;-73
2023/02/21 10:30:09;;;;;;;53.25;20.52;;;;;;;8.25;93.32;102190.47;6087863;19;20014;-73
2023/02/21 10:32:15;;;;;;;50.10;19.38;;;;;;;8.26;93.48;102187.81;6083164;19;20018;-75
2023/02/21 10:34:26;;;;;;;50.33;18.90;;;;;;;8.21;93.60;102189.63;6079006;19;20007;-75
2023/02/21 10:36:32;;;;;;;58.42;20.45;;;;;;;8.20;93.96;102194.88;6067067;19;20469;-75
2023/02/21 10:38:38;;;;;;;57.50;18.65;;;;;;;8.14;94.15;102193.19;6085533;19;20089;-75
2023/02/21 10:40:46;;;;;;;51.35;19.58;;;;;;;8.17;93.93;102193.16;6080228;19;20039;-75
2023/02/21 10:42:56;;;;;;;50.35;19.13;;;;;;;8.17;93.74;102192.31;6074924;19;20398;-75
2023/02/21 10:45:07;;;;;;;48.95;19.77;;;;;;;8.14;94.12;102195.81;6084355;19;20009;-75
2023/02/21 10:47:20;;;;;;;56.70;21.00;;;;;;;8.14;94.14;102186.19;6089427;19;20011;-75
2023/02/21 10:49:34;;;;;;;54.38;19.98;;;;;;;8.14;94.47;102185.34;6088064;19;20351;-75
2023/02/21 10:51:39;;;;;;;52.60;18.88;;;;;;;8.14;94.39;102180.09;6086356;19;20596;-74
2023/02/21 10:53:51;;;;;;;44.67;17.95;;;;;;;8.16;94.26;102180.94;6079873;19;20359;-74
2023/02/21 10:56:35;;;;;;;56.65;18.45;;;;;;;8.16;94.09;102177.44;6078344;19;20058;-74
2023/02/21 10:58:47;;;;;;;49.60;19.40;;;;;;;8.17;94.35;102177.44;6080611;19;20014;-74
2023/02/21 11:00:52;;;;;;;48.58;18.65;;;;;;;8.14;94.59;102182.72;6077524;19;20007;-74
2023/02/21 11:03:03;;;;;;;50.50;17.55;;;;;;;8.14;94.48;102178.34;6082695;19;20006;-72
2023/02/21 11:05:22;;;;;;;46.65;17.05;;;;;;;8.16;94.29;102177.44;6077577;19;20474;-75
2023/02/21 11:07:27;;;;;;;41.40;15.20;;;;;;;8.18;94.39;102173.94;6083439;19;20010;-74
2023/02/21 11:09:40;;;;;;;45.13;17.48;;;;;;;8.20;94.62;102173.94;6081177;19;20039;-74
2023/02/21 11:11:45;;;;;;;41.13;15.88;;;;;;;8.25;94.42;102165.16;6082865;19;20010;-73
2023/02/21 11:13:50;;;;;;;43.65;16.85;;;;;;;8.29;94.09;102171.22;6081363;19;20444;-73
2023/02/21 11:16:12;;;;;;;43.90;17.13;;;;;;;8.31;94.25;102164.22;6059069;19;20002;-74
2023/02/21 11:18:25;;;;;;;38.10;16.37;;;;;;;8.24;94.24;102167.78;6084398;19;20081;-74
2023/02/21 11:20:33;;;;;;;31.08;12.27;;;;;;;8.24;94.13;102168.66;6081867;19;20960;-74
2023/02/21 11:22:41;;;;;;;31.58;11.60;;;;;;;8.25;93.93;102161.69;6087022;19;20014;-75
2023/02/21 11:25:05;;;;;;;37.63;14.63;;;;;;;8.24;93.68;102158.19;6086116;19;20007;-74
2023/02/21 11:27:10;;;;;;;30.05;11.75;;;;;;;8.28;94.06;102157.25;6083721;19;26088;-74
2023/02/21 11:29:18;;;;;;;35.75;12.27;;;;;;;8.29;93.64;102161.63;6090489;19;20022;-74
2023/02/21 11:31:30;;;;;;;35.05;13.80;;;;;;;8.26;93.93;102155.53;6092831;19;20446;-75
2023/02/21 11:33:38;;;;;;;35.10;14.88;;;;;;;8.27;93.87;102158.16;6086880;19;20021;-74
2023/02/21 11:35:55;;;;;;;35.28;13.98;;;;;;;8.34;93.69;102154.56;6091618;19;20070;-74
2023/02/21 11:38:05;;;;;;;35.80;14.73;;;;;;;8.43;93.43;102152.81;6093194;19;20011;-74
2023/02/21 11:40:24;;;;;;;34.30;15.13;;;;;;;8.32;93.49;102156.38;6091000;19;20098;-74
2023/02/21 11:42:33;;;;;;;31.13;12.52;;;;;;;8.32;93.21;102147.63;6090010;19;20011;-75
2023/02/21 11:44:42;;;;;;;34.13;13.43;;;;;;;8.37;92.99;102148.44;6087930;19;20032;-72
2023/02/21 11:46:54;;;;;;;32.03;15.20;;;;;;;8.46;93.03;102150.16;6090765;19;20029;-75
2023/02/21 11:49:05;;;;;;;32.00;13.93;;;;;;;8.40;93.20;102150.19;6080725;19;20022;-73
2023/02/21 11:51:25;;;;;;;30.02;14.40;;;;;;;8.46;92.59;102142.28;6088302;19;20118;-73
2023/02/21 11:53:37;;;;;;;28.02;11.70;;;;;;;8.51;93.04;102136.09;6079028;19;20474;-73
2023/02/21 11:55:49;;;;;;;32.83;13.25;;;;;;;8.58;92.86;102134.28;6086496;19;20047;-74
2023/02/21 11:58:08;;;;;;;32.67;13.20;;;;;;;8.43;92.39;102126.59;6087615;19;20025;-74
2023/02/21 12:00:24;;;;;;;28.35;11.38;;;;;;;8.48;92.28;102122.19;6082958;19;20356;-73
2023/02/21 12:03:08;;;;;;;26.83;11.52;;;;;;;8.51;92.65;102130.88;6086587;19;20014;-75
2023/02/21 12:05:29;;;;;;;25.95;11.18;;;;;;;8.54;92.80;102129.97;6081734;19;20015;-74
2023/02/21 12:07:48;;;;;;;25.02;11.48;;;;;;;8.54;92.43;102119.50;6086596;19;20431;-74
2023/02/21 12:10:00;;;;;;;28.65;11.63;;;;;;;8.53;92.42;102120.34;6090084;19;20082;-74